createdAt,value
2023-01-08T00:00:38.049Z,7.80
2023-01-08T00:01:38.012Z,6.10
2023-01-08T00:02:38.031Z,7.20
2023-01-08T00:03:38.182Z,6.80
2023-01-08T00:04:37.962Z,7.00
2023-01-08T00:05:37.983Z,7.80
2023-01-08T00:06:37.940Z,7.50
2023-01-08T00:07:37.947Z,7.30
2023-01-08T00:08:37.926Z,8.40
2023-01-08T00:09:37.922Z,7.50
2023-01-08T00:10:37.912Z,7.40
2023-01-08T00:11:37.903Z,7.60
2023-01-08T00:12:37.901Z,7.50
2023-01-08T00:13:37.861Z,8.60
2023-01-08T00:14:37.876Z,7.40
2023-01-08T00:15:37.841Z,7.60
2023-01-08T00:16:37.906Z,7.70
2023-01-08T00:17:37.822Z,6.40
2023-01-08T00:18:37.833Z,6.00
2023-01-08T00:19:37.802Z,6.80
2023-01-08T00:20:37.809Z,7.10
2023-01-08T00:21:37.779Z,7.30
2023-01-08T00:22:37.819Z,7.80
2023-01-08T00:23:37.758Z,8.10
2023-01-08T00:24:37.765Z,7.30
2023-01-08T00:25:37.734Z,5.60
2023-01-08T00:26:37.753Z,7.10
2023-01-08T00:27:37.717Z,6.00
2023-01-08T00:28:37.759Z,6.50
2023-01-08T00:29:37.700Z,6.50
2023-01-08T00:30:37.802Z,7.20
2023-01-08T00:31:37.671Z,5.60
2023-01-08T00:32:37.680Z,7.30
2023-01-08T00:33:37.682Z,6.90
2023-01-08T00:34:37.663Z,6.80
2023-01-08T00:35:37.630Z,6.90
2023-01-08T00:36:37.643Z,6.90
2023-01-08T00:37:37.611Z,8.00
2023-01-08T00:38:37.620Z,6.90
2023-01-08T00:39:37.611Z,6.00
2023-01-08T00:40:37.602Z,7.30
2023-01-08T00:41:37.568Z,5.30
2023-01-08T00:42:37.587Z,7.20
2023-01-08T00:43:37.547Z,7.50
2023-01-08T00:44:37.594Z,7.00
2023-01-08T00:45:37.584Z,6.20
2023-01-08T00:46:37.542Z,7.80
2023-01-08T00:47:37.506Z,6.60
2023-01-08T00:48:37.524Z,6.10
2023-01-08T00:49:37.489Z,7.50
2023-01-08T00:50:37.508Z,6.70
2023-01-08T00:51:37.467Z,6.30
2023-01-08T00:52:37.491Z,8.00
2023-01-08T00:53:37.445Z,6.60
2023-01-08T00:54:37.462Z,6.50
2023-01-08T00:55:37.442Z,5.40
2023-01-08T00:56:37.437Z,7.20
2023-01-08T00:57:37.413Z,7.30
2023-01-08T00:58:37.420Z,6.30
2023-01-08T00:59:37.380Z,6.60
2023-01-08T01:00:37.397Z,6.90
2023-01-08T01:01:37.567Z,6.50
2023-01-08T01:02:37.375Z,6.40
2023-01-08T01:03:37.341Z,6.20
2023-01-08T01:04:37.429Z,6.00
2023-01-08T01:05:37.350Z,5.70
2023-01-08T01:06:37.358Z,6.70
2023-01-08T01:07:37.333Z,7.90
2023-01-08T01:08:37.313Z,7.00
2023-01-08T01:09:37.277Z,6.10
2023-01-08T01:10:37.288Z,6.10
2023-01-08T01:11:37.296Z,6.90
2023-01-08T01:12:37.277Z,5.90
2023-01-08T01:13:37.244Z,6.00
2023-01-08T01:14:37.247Z,5.10
2023-01-08T01:15:37.215Z,6.00
2023-01-08T01:16:37.292Z,6.60
2023-01-08T01:17:37.221Z,6.50
2023-01-08T01:18:37.203Z,6.30
2023-01-08T01:19:37.185Z,5.30
2023-01-08T01:20:37.194Z,5.90
2023-01-08T01:21:37.153Z,5.60
2023-01-08T01:22:37.166Z,4.70
2023-01-08T01:23:37.147Z,5.80
2023-01-08T01:24:37.143Z,5.50
2023-01-08T01:25:37.119Z,7.30
2023-01-08T01:26:37.119Z,5.30
2023-01-08T01:27:37.086Z,6.20
2023-01-08T01:28:37.129Z,6.30
2023-01-08T01:29:37.072Z,7.30
2023-01-08T01:30:37.120Z,5.00
2023-01-08T01:31:37.048Z,6.10
2023-01-08T01:32:37.067Z,5.10
2023-01-08T01:33:37.029Z,5.10
2023-01-08T01:34:37.051Z,6.00
2023-01-08T01:35:37.006Z,6.50
2023-01-08T01:36:37.028Z,7.50
2023-01-08T01:37:36.987Z,6.10
2023-01-08T01:38:37.000Z,5.30
2023-01-08T01:39:36.988Z,5.20
2023-01-08T01:40:36.973Z,5.10
2023-01-08T01:41:36.940Z,4.90
2023-01-08T01:42:36.954Z,5.90
2023-01-08T01:43:36.927Z,5.50
2023-01-08T01:44:36.942Z,6.00
2023-01-08T01:45:36.995Z,5.20
2023-01-08T01:46:36.917Z,5.30
2023-01-08T01:47:36.886Z,4.70
2023-01-08T01:48:36.890Z,5.30
2023-01-08T01:49:36.859Z,4.80
2023-01-08T01:50:36.886Z,5.30
2023-01-08T01:51:36.835Z,5.50
2023-01-08T01:52:36.847Z,4.90
2023-01-08T01:53:36.813Z,5.60
2023-01-08T01:54:36.834Z,4.80
2023-01-08T01:55:36.799Z,4.90
2023-01-08T01:56:36.816Z,4.90
2023-01-08T01:57:36.775Z,6.20
2023-01-08T01:58:36.796Z,6.40
2023-01-08T01:59:36.756Z,5.70
2023-01-08T02:00:36.772Z,4.20
2023-01-08T02:01:36.957Z,7.40
2023-01-08T02:02:36.764Z,4.30
2023-01-08T02:03:36.824Z,7.80
2023-01-08T02:04:36.733Z,5.90
2023-01-08T02:05:36.690Z,5.10
2023-01-08T02:06:36.708Z,5.50
2023-01-08T02:07:36.681Z,6.00
2023-01-08T02:08:36.681Z,4.70
2023-01-08T02:09:36.649Z,5.30
2023-01-08T02:10:36.659Z,5.70
2023-01-08T02:11:36.629Z,5.20
2023-01-08T02:12:36.667Z,5.30
2023-01-08T02:13:36.614Z,5.70
2023-01-08T02:14:36.619Z,5.90
2023-01-08T02:15:36.588Z,5.60
2023-01-08T02:16:36.655Z,4.90
2023-01-08T02:17:36.569Z,6.10
2023-01-08T02:18:36.601Z,4.60
2023-01-08T02:19:36.552Z,5.30
2023-01-08T02:20:36.556Z,5.60
2023-01-08T02:21:36.532Z,6.80
2023-01-08T02:22:36.535Z,4.90
2023-01-08T02:23:36.528Z,5.00
2023-01-08T02:24:36.514Z,7.30
2023-01-08T02:25:36.485Z,6.60
2023-01-08T02:26:36.493Z,4.40
2023-01-08T02:27:36.460Z,5.70
2023-01-08T02:28:36.473Z,5.80
2023-01-08T02:29:36.458Z,4.50
2023-01-08T02:30:36.511Z,5.10
2023-01-08T02:31:36.421Z,5.00
2023-01-08T02:32:36.449Z,5.30
2023-01-08T02:33:36.396Z,4.20
2023-01-08T02:34:36.444Z,4.90
2023-01-08T02:35:36.377Z,5.40
2023-01-08T02:36:36.400Z,5.70
2023-01-08T02:37:36.359Z,7.30
2023-01-08T02:38:36.367Z,6.30
2023-01-08T02:39:36.349Z,6.60
2023-01-08T02:40:36.367Z,5.30
2023-01-08T02:41:36.318Z,4.20
2023-01-08T02:42:36.326Z,5.70
2023-01-08T02:43:36.298Z,4.60
2023-01-08T02:44:36.309Z,5.70
2023-01-08T02:45:36.315Z,5.40
2023-01-08T02:46:36.284Z,6.10
2023-01-08T02:47:36.275Z,6.00
2023-01-08T02:48:36.262Z,5.10
2023-01-08T02:49:36.232Z,4.80
2023-01-08T02:50:36.241Z,6.30
2023-01-08T02:51:36.223Z,7.00
2023-01-08T02:52:36.236Z,5.60
2023-01-08T02:53:36.197Z,6.10
2023-01-08T02:54:36.217Z,5.90
2023-01-08T02:55:36.167Z,5.10
2023-01-08T02:56:36.210Z,4.90
2023-01-08T02:57:36.151Z,5.80
2023-01-08T02:58:36.174Z,5.40
2023-01-08T02:59:36.127Z,6.30
2023-01-08T03:00:36.149Z,5.70
2023-01-08T03:01:36.344Z,5.30
2023-01-08T03:02:36.128Z,4.50
2023-01-08T03:03:36.092Z,5.00
2023-01-08T03:04:36.178Z,5.90
2023-01-08T03:05:36.068Z,5.10
2023-01-08T03:06:36.087Z,4.50
2023-01-08T03:07:36.059Z,4.10
2023-01-08T03:08:36.054Z,6.10
2023-01-08T03:09:36.025Z,5.80
2023-01-08T03:10:36.031Z,4.80
2023-01-08T03:11:36.000Z,3.90
2023-01-08T03:12:36.017Z,5.40
2023-01-08T03:13:35.995Z,5.70
2023-01-08T03:14:36.001Z,4.00
2023-01-08T03:15:35.959Z,4.50
2023-01-08T03:16:36.110Z,5.40
2023-01-08T03:17:35.983Z,5.00
2023-01-08T03:18:35.970Z,4.40
2023-01-08T03:19:35.924Z,4.80
2023-01-08T03:20:35.944Z,3.90
2023-01-08T03:21:35.899Z,4.30
2023-01-08T03:22:35.907Z,4.70
2023-01-08T03:23:35.877Z,4.90
2023-01-08T03:24:35.903Z,5.00
2023-01-08T03:25:35.859Z,5.30
2023-01-08T03:26:35.869Z,4.10
2023-01-08T03:27:35.838Z,4.80
2023-01-08T03:28:35.862Z,5.40
2023-01-08T03:29:35.837Z,4.30
2023-01-08T03:30:35.911Z,5.60
2023-01-08T03:31:35.802Z,4.40
2023-01-08T03:32:35.824Z,4.50
2023-01-08T03:33:35.773Z,5.00
2023-01-08T03:34:35.781Z,4.20
2023-01-08T03:35:35.760Z,4.80
2023-01-08T03:36:35.762Z,5.70
2023-01-08T03:37:35.735Z,4.70
2023-01-08T03:38:35.748Z,4.20
2023-01-08T03:39:35.711Z,4.90
2023-01-08T03:40:35.737Z,5.20
2023-01-08T03:41:35.690Z,5.30
2023-01-08T03:42:35.699Z,6.30
2023-01-08T03:43:35.688Z,5.40
2023-01-08T03:44:35.690Z,4.60
2023-01-08T03:45:35.648Z,4.80
2023-01-08T03:46:35.783Z,5.40
2023-01-08T03:47:35.626Z,4.50
2023-01-08T03:48:35.649Z,4.20
2023-01-08T03:49:35.609Z,4.80
2023-01-08T03:50:35.620Z,4.30
2023-01-08T03:51:35.601Z,5.40
2023-01-08T03:52:35.601Z,4.80
2023-01-08T03:53:35.564Z,5.70
2023-01-08T03:54:35.580Z,4.60
2023-01-08T03:55:35.540Z,5.70
2023-01-08T03:56:35.553Z,6.20
2023-01-08T03:57:35.540Z,5.00
2023-01-08T03:58:35.533Z,6.60
2023-01-08T03:59:35.515Z,4.00
2023-01-08T04:00:35.523Z,3.50
2023-01-08T04:01:35.601Z,6.00
2023-01-08T04:02:35.528Z,4.60
2023-01-08T04:03:35.487Z,6.10
2023-01-08T04:04:35.542Z,5.30
2023-01-08T04:05:35.446Z,6.20
2023-01-08T04:06:35.468Z,6.20
2023-01-08T04:07:35.429Z,5.40
2023-01-08T04:08:35.500Z,3.90
2023-01-08T04:09:35.401Z,4.80
2023-01-08T04:10:35.420Z,5.80
2023-01-08T04:11:35.373Z,4.60
2023-01-08T04:12:35.404Z,4.30
2023-01-08T04:13:35.370Z,4.80
2023-01-08T04:14:35.371Z,5.20
2023-01-08T04:15:35.404Z,4.10
2023-01-08T04:16:35.358Z,6.00
2023-01-08T04:17:35.338Z,4.80
2023-01-08T04:18:35.341Z,4.20
2023-01-08T04:19:35.313Z,4.90
2023-01-08T04:20:35.316Z,4.50
2023-01-08T04:21:35.274Z,5.20
2023-01-08T04:22:35.266Z,4.70
2023-01-08T04:23:35.277Z,5.40
2023-01-08T04:24:35.273Z,4.90
2023-01-08T04:25:35.251Z,5.40
2023-01-08T04:26:35.225Z,3.80
2023-01-08T04:27:35.235Z,4.70
2023-01-08T04:28:35.230Z,3.90
2023-01-08T04:29:35.198Z,5.60
2023-01-08T04:30:35.212Z,5.10
2023-01-08T04:31:35.170Z,5.20
2023-01-08T04:32:35.188Z,5.30
2023-01-08T04:33:35.155Z,4.50
2023-01-08T04:34:35.153Z,5.00
2023-01-08T04:35:35.147Z,4.90
2023-01-08T04:36:35.139Z,5.20
2023-01-08T04:37:35.099Z,5.00
2023-01-08T04:38:35.113Z,4.30
2023-01-08T04:39:35.087Z,5.10
2023-01-08T04:40:35.109Z,5.70
2023-01-08T04:41:35.082Z,4.50
2023-01-08T04:42:35.072Z,4.70
2023-01-08T04:43:35.044Z,4.60
2023-01-08T04:44:35.065Z,3.80
2023-01-08T04:45:35.018Z,5.80
2023-01-08T04:46:35.170Z,4.30
2023-01-08T04:47:34.997Z,5.30
2023-01-08T04:48:35.013Z,4.70
2023-01-08T04:49:34.977Z,5.00
2023-01-08T04:50:35.015Z,4.90
2023-01-08T04:51:34.974Z,5.60
2023-01-08T04:52:35.127Z,4.60
2023-01-08T04:53:34.942Z,4.70
2023-01-08T04:54:34.951Z,4.10
2023-01-08T04:55:34.915Z,3.60
2023-01-08T04:56:34.924Z,5.40
2023-01-08T04:57:34.904Z,3.60
2023-01-08T04:58:34.932Z,4.30
2023-01-08T04:59:34.871Z,4.20
2023-01-08T05:00:34.893Z,5.10
2023-01-08T05:01:34.987Z,4.30
2023-01-08T05:02:35.159Z,3.30
2023-01-08T05:03:34.889Z,3.90
2023-01-08T05:04:34.845Z,4.00
2023-01-08T05:05:34.873Z,4.10
2023-01-08T05:06:34.827Z,4.70
2023-01-08T05:07:34.788Z,3.90
2023-01-08T05:08:34.827Z,3.10
2023-01-08T05:09:34.766Z,5.20
2023-01-08T05:10:34.794Z,3.40
2023-01-08T05:11:34.781Z,3.90
2023-01-08T05:12:34.759Z,4.30
2023-01-08T05:13:34.739Z,4.40
2023-01-08T05:14:34.768Z,2.50
2023-01-08T05:15:34.742Z,3.60
2023-01-08T05:16:34.718Z,3.70
2023-01-08T05:17:34.688Z,3.20
2023-01-08T05:18:34.707Z,3.60
2023-01-08T05:19:34.691Z,4.00
2023-01-08T05:20:34.679Z,3.60
2023-01-08T05:21:34.644Z,3.70
2023-01-08T05:22:34.658Z,3.50
2023-01-08T05:23:34.619Z,3.80
2023-01-08T05:24:34.638Z,3.80
2023-01-08T05:25:34.614Z,4.70
2023-01-08T05:26:34.618Z,4.00
2023-01-08T05:27:34.579Z,3.60
2023-01-08T05:28:34.602Z,3.30
2023-01-08T05:29:34.571Z,3.50
2023-01-08T05:30:34.594Z,2.90
2023-01-08T05:31:34.608Z,4.40
2023-01-08T05:32:34.550Z,2.60
2023-01-08T05:33:34.523Z,2.60
2023-01-08T05:34:34.529Z,2.40
2023-01-08T05:35:34.499Z,3.80
2023-01-08T05:36:34.518Z,4.50
2023-01-08T05:37:34.477Z,3.60
2023-01-08T05:38:34.503Z,3.10
2023-01-08T05:39:34.466Z,3.40
2023-01-08T05:40:34.480Z,2.90
2023-01-08T05:41:34.458Z,3.10
2023-01-08T05:42:34.447Z,2.30
2023-01-08T05:43:34.412Z,3.10
2023-01-08T05:44:34.443Z,4.00
2023-01-08T05:45:34.395Z,3.60
2023-01-08T05:46:34.447Z,4.80
2023-01-08T05:47:34.393Z,3.70
2023-01-08T05:48:34.388Z,3.60
2023-01-08T05:49:34.350Z,2.70
2023-01-08T05:50:34.371Z,3.30
2023-01-08T05:51:34.330Z,3.00
2023-01-08T05:52:34.356Z,4.10
2023-01-08T05:53:34.316Z,2.80
2023-01-08T05:54:34.326Z,2.40
2023-01-08T05:55:34.288Z,3.30
2023-01-08T05:56:34.300Z,3.30
2023-01-08T05:57:34.277Z,3.80
2023-01-08T05:58:34.297Z,4.10
2023-01-08T05:59:34.244Z,2.90
2023-01-08T06:00:34.274Z,3.70
2023-01-08T06:01:34.280Z,4.20
2023-01-08T06:02:34.292Z,2.10
2023-01-08T06:03:34.221Z,2.50
2023-01-08T06:04:34.306Z,2.60
2023-01-08T06:05:34.187Z,2.90
2023-01-08T06:06:34.196Z,3.30
2023-01-08T06:07:34.168Z,2.70
2023-01-08T06:08:34.177Z,2.30
2023-01-08T06:09:34.161Z,2.50
2023-01-08T06:10:34.177Z,2.50
2023-01-08T06:11:34.134Z,2.30
2023-01-08T06:12:34.133Z,2.20
2023-01-08T06:13:34.111Z,1.90
2023-01-08T06:14:34.135Z,4.10
2023-01-08T06:15:34.125Z,2.80
2023-01-08T06:16:34.105Z,3.20
2023-01-08T06:17:34.058Z,2.40
2023-01-08T06:18:34.088Z,3.00
2023-01-08T06:19:34.035Z,2.20
2023-01-08T06:20:34.068Z,2.30
2023-01-08T06:21:34.024Z,2.40
2023-01-08T06:22:34.063Z,2.80
2023-01-08T06:23:34.000Z,3.20
2023-01-08T06:24:34.008Z,2.00
2023-01-08T06:25:34.008Z,2.40
2023-01-08T06:26:33.996Z,3.50
2023-01-08T06:27:33.966Z,2.70
2023-01-08T06:28:33.974Z,2.90
2023-01-08T06:29:33.951Z,3.50
2023-01-08T06:30:33.946Z,2.40
2023-01-08T06:31:33.986Z,2.30
2023-01-08T06:32:33.929Z,1.90
2023-01-08T06:33:33.896Z,2.70
2023-01-08T06:34:33.902Z,2.30
2023-01-08T06:35:33.881Z,2.40
2023-01-08T06:36:33.910Z,2.90
2023-01-08T06:37:33.860Z,2.10
2023-01-08T06:38:33.861Z,1.80
2023-01-08T06:39:33.827Z,2.30
2023-01-08T06:40:33.867Z,2.80
2023-01-08T06:41:33.809Z,3.40
2023-01-08T06:42:33.830Z,2.50
2023-01-08T06:43:33.789Z,2.30
2023-01-08T06:44:33.799Z,2.40
2023-01-08T06:45:33.773Z,2.40
2023-01-08T06:46:33.835Z,1.50
2023-01-08T06:47:33.761Z,2.60
2023-01-08T06:48:33.768Z,3.20
2023-01-08T06:49:33.725Z,2.90
2023-01-08T06:50:33.749Z,2.60
2023-01-08T06:51:33.707Z,2.70
2023-01-08T06:52:33.766Z,2.20
2023-01-08T06:53:33.704Z,2.50
2023-01-08T06:54:33.708Z,3.50
2023-01-08T06:55:33.668Z,3.30
2023-01-08T06:56:45.315Z,2.80
2023-01-08T06:57:33.650Z,2.40
2023-01-08T06:58:33.686Z,1.80
2023-01-08T06:59:33.621Z,2.10
2023-01-08T07:00:33.638Z,2.30
2023-01-08T07:01:33.721Z,2.50
2023-01-08T07:02:33.891Z,2.30
2023-01-08T07:03:33.640Z,3.50
2023-01-08T07:04:33.614Z,1.70
2023-01-08T07:05:33.561Z,2.70
2023-01-08T07:06:33.580Z,9.90
2023-01-08T07:07:33.535Z,11.60
2023-01-08T07:08:33.559Z,11.10
2023-01-08T07:09:33.536Z,7.90
2023-01-08T07:10:33.531Z,12.00
2023-01-08T07:11:33.512Z,11.30
2023-01-08T07:12:33.503Z,10.20
2023-01-08T07:13:33.476Z,10.70
2023-01-08T07:14:33.503Z,7.30
2023-01-08T07:15:33.479Z,8.20
2023-01-08T07:16:33.478Z,5.00
2023-01-08T07:17:33.438Z,4.30
2023-01-08T07:18:33.449Z,3.20
2023-01-08T07:19:33.426Z,2.20
2023-01-08T07:20:33.438Z,2.40
2023-01-08T07:21:33.390Z,2.10
2023-01-08T07:22:33.425Z,2.60
2023-01-08T07:23:33.378Z,1.60
2023-01-08T07:24:33.383Z,1.90
2023-01-08T07:25:33.346Z,2.00
2023-01-08T07:26:33.380Z,1.50
2023-01-08T07:27:33.326Z,2.40
2023-01-08T07:28:33.345Z,2.60
2023-01-08T07:29:33.311Z,1.70
2023-01-08T07:30:33.331Z,2.80
2023-01-08T07:31:33.440Z,2.80
2023-01-08T07:32:33.301Z,1.90
2023-01-08T07:33:33.266Z,2.00
2023-01-08T07:34:33.283Z,2.10
2023-01-08T07:35:33.253Z,2.50
2023-01-08T07:36:33.273Z,2.80
2023-01-08T07:37:33.241Z,2.60
2023-01-08T07:38:33.280Z,2.40
2023-01-08T07:39:33.204Z,2.20
2023-01-08T07:40:33.223Z,1.80
2023-01-08T07:41:33.182Z,2.20
2023-01-08T07:42:33.195Z,2.80
2023-01-08T07:43:33.183Z,3.50
2023-01-08T07:44:33.178Z,2.30
2023-01-08T07:45:33.146Z,1.80
2023-01-08T07:46:33.230Z,2.20
2023-01-08T07:47:33.119Z,3.30
2023-01-08T07:48:33.138Z,2.70
2023-01-08T07:49:33.112Z,2.90
2023-01-08T07:50:33.113Z,2.40
2023-01-08T07:51:33.076Z,2.90
2023-01-08T07:52:33.093Z,2.70
2023-01-08T07:53:33.063Z,1.90
2023-01-08T07:54:33.097Z,3.10
2023-01-08T07:55:33.035Z,2.00
2023-01-08T07:56:33.048Z,2.00
2023-01-08T07:57:33.024Z,1.40
2023-01-08T07:58:33.028Z,3.10
2023-01-08T07:59:32.996Z,2.90
2023-01-08T08:00:33.026Z,2.50
2023-01-08T08:01:33.082Z,2.90
2023-01-08T08:02:33.134Z,3.10
2023-01-08T08:03:33.024Z,3.40
2023-01-08T08:04:32.970Z,3.40
2023-01-08T08:05:32.952Z,2.30
2023-01-08T08:06:32.951Z,3.40
2023-01-08T08:07:32.919Z,4.20
2023-01-08T08:08:32.923Z,3.80
2023-01-08T08:09:32.891Z,4.00
2023-01-08T08:10:32.906Z,3.00
2023-01-08T08:11:32.884Z,5.90
2023-01-08T08:12:32.898Z,3.80
2023-01-08T08:13:32.853Z,3.90
2023-01-08T08:14:32.861Z,3.00
2023-01-08T08:15:32.841Z,3.80
2023-01-08T08:16:32.920Z,6.80
2023-01-08T08:17:32.810Z,3.60
2023-01-08T08:18:32.827Z,3.40
2023-01-08T08:19:32.809Z,3.70
2023-01-08T08:20:32.807Z,2.80
2023-01-08T08:21:32.765Z,3.00
2023-01-08T08:22:32.803Z,2.80
2023-01-08T08:23:33.777Z,5.20
2023-01-08T08:24:32.767Z,5.10
2023-01-08T08:25:32.747Z,4.70
2023-01-08T08:26:32.741Z,5.50
2023-01-08T08:27:32.721Z,6.30
2023-01-08T08:28:32.730Z,4.00
2023-01-08T08:29:32.695Z,4.30
2023-01-08T08:30:32.711Z,4.00
2023-01-08T08:31:32.696Z,4.10
2023-01-08T08:32:32.675Z,2.80
2023-01-08T08:33:32.691Z,3.40
2023-01-08T08:34:32.661Z,3.40
2023-01-08T08:35:32.625Z,3.80
2023-01-08T08:36:32.648Z,3.60
2023-01-08T08:37:32.620Z,3.60
2023-01-08T08:38:32.635Z,4.10
2023-01-08T08:39:32.580Z,4.90
2023-01-08T08:40:32.603Z,3.40
2023-01-08T08:41:32.558Z,3.40
2023-01-08T08:42:32.571Z,4.40
2023-01-08T08:43:32.553Z,3.00
2023-01-08T08:44:32.545Z,4.70
2023-01-08T08:45:32.544Z,2.50
2023-01-08T08:46:32.519Z,3.30
2023-01-08T08:47:32.519Z,4.10
2023-01-08T08:48:32.521Z,3.70
2023-01-08T08:49:32.531Z,2.80
2023-01-08T08:50:32.511Z,3.80
2023-01-08T08:51:32.484Z,4.50
2023-01-08T08:52:32.444Z,2.90
2023-01-08T08:53:32.502Z,3.60
2023-01-08T08:54:32.433Z,3.40
2023-01-08T08:55:32.491Z,2.70
2023-01-08T08:56:33.161Z,4.20
2023-01-08T08:57:32.475Z,2.20
2023-01-08T08:58:32.389Z,3.00
2023-01-08T08:59:32.396Z,2.10
2023-01-08T09:00:32.391Z,2.50
2023-01-08T09:01:32.510Z,2.80
2023-01-08T09:02:32.608Z,2.30
2023-01-08T09:03:32.433Z,1.50
2023-01-08T09:04:32.319Z,2.30
2023-01-08T09:05:32.345Z,2.90
2023-01-08T09:06:32.315Z,2.80
2023-01-08T09:07:32.316Z,2.60
2023-01-08T09:08:32.280Z,3.20
2023-01-08T09:09:32.297Z,3.50
2023-01-08T09:10:32.267Z,3.70
2023-01-08T09:11:32.289Z,2.30
2023-01-08T09:12:32.249Z,4.30
2023-01-08T09:13:32.255Z,4.10
2023-01-08T09:14:32.225Z,3.90
2023-01-08T09:15:32.232Z,4.30
2023-01-08T09:16:32.218Z,5.10
2023-01-08T09:17:32.223Z,3.60
2023-01-08T09:18:32.173Z,5.70
2023-01-08T09:19:32.190Z,4.00
2023-01-08T09:20:32.150Z,5.30
2023-01-08T09:21:32.166Z,3.50
2023-01-08T09:22:32.149Z,5.50
2023-01-08T09:23:32.145Z,4.20
2023-01-08T09:24:32.128Z,4.60
2023-01-08T09:25:32.161Z,2.90
2023-01-08T09:26:32.105Z,5.60
2023-01-08T09:27:32.131Z,4.30
2023-01-08T09:28:32.102Z,7.40
2023-01-08T09:29:32.084Z,5.30
2023-01-08T09:30:32.050Z,6.00
2023-01-08T09:31:32.126Z,5.90
2023-01-08T09:32:32.024Z,6.60
2023-01-08T09:33:32.063Z,6.60
2023-01-08T09:34:32.009Z,5.00
2023-01-08T09:35:32.025Z,7.80
2023-01-08T09:36:31.987Z,5.20
2023-01-08T09:37:32.001Z,7.30
2023-01-08T09:38:31.974Z,4.70
2023-01-08T09:39:32.024Z,8.30
2023-01-08T09:40:31.977Z,7.20
2023-01-08T09:41:31.986Z,5.40
2023-01-08T09:42:31.936Z,5.00
2023-01-08T09:43:32.047Z,6.40
2023-01-08T09:44:31.923Z,5.40
2023-01-08T09:45:31.921Z,4.50
2023-01-08T09:46:31.986Z,7.10
2023-01-08T09:47:31.891Z,5.40
2023-01-08T09:48:31.869Z,7.50
2023-01-08T09:49:31.883Z,8.00
2023-01-08T09:50:32.729Z,6.30
2023-01-08T09:51:31.853Z,7.60
2023-01-08T09:52:31.819Z,6.80
2023-01-08T09:53:31.835Z,7.30
2023-01-08T09:54:31.812Z,7.20
2023-01-08T09:55:31.891Z,8.40
2023-01-08T09:56:31.891Z,5.50
2023-01-08T09:57:31.799Z,8.10
2023-01-08T09:58:31.767Z,9.30
2023-01-08T09:59:31.773Z,7.50
2023-01-08T10:00:31.836Z,8.10
2023-01-08T10:01:31.931Z,6.30
2023-01-08T10:02:31.940Z,7.00
2023-01-08T10:03:31.729Z,8.50
2023-01-08T10:04:31.697Z,8.20
2023-01-08T10:05:31.708Z,5.20
2023-01-08T10:06:31.687Z,8.50
2023-01-08T10:07:31.692Z,8.60
2023-01-08T10:08:31.651Z,7.00
2023-01-08T10:09:31.674Z,7.60
2023-01-08T10:10:31.631Z,8.00
2023-01-08T10:11:31.667Z,6.90
2023-01-08T10:12:31.661Z,7.50
2023-01-08T10:13:31.623Z,9.50
2023-01-08T10:14:32.436Z,8.00
2023-01-08T10:15:31.633Z,6.90
2023-01-08T10:16:31.637Z,6.70
2023-01-08T10:17:31.632Z,8.60
2023-01-08T10:18:31.589Z,10.20
2023-01-08T10:19:31.682Z,11.10
2023-01-08T10:20:31.621Z,14.10
2023-01-08T10:21:31.655Z,8.80
2023-01-08T10:22:31.509Z,10.40
2023-01-08T10:23:31.537Z,9.80
2023-01-08T10:24:31.500Z,8.50
2023-01-08T10:25:31.509Z,10.90
2023-01-08T10:26:31.482Z,13.20
2023-01-08T10:27:31.480Z,8.20
2023-01-08T10:28:31.489Z,9.30
2023-01-08T10:29:31.455Z,11.00
2023-01-08T10:30:31.423Z,11.30
2023-01-08T10:31:31.505Z,10.70
2023-01-08T10:32:31.412Z,8.90
2023-01-08T10:33:31.427Z,13.10
2023-01-08T10:34:31.402Z,9.90
2023-01-08T10:35:31.432Z,11.20
2023-01-08T10:36:31.360Z,11.90
2023-01-08T10:37:31.377Z,9.70
2023-01-08T10:38:33.216Z,11.00
2023-01-08T10:39:31.381Z,11.40
2023-01-08T10:40:31.319Z,10.00
2023-01-08T10:41:31.332Z,10.00
2023-01-08T10:42:31.297Z,12.50
2023-01-08T10:43:31.313Z,10.30
2023-01-08T10:44:31.280Z,8.10
2023-01-08T10:45:31.389Z,11.20
2023-01-08T10:46:31.256Z,10.70
2023-01-08T10:47:31.280Z,10.80
2023-01-08T10:48:31.244Z,11.80
2023-01-08T10:49:31.270Z,11.20
2023-01-08T10:50:31.233Z,8.90
2023-01-08T10:51:31.320Z,8.50
2023-01-08T10:52:31.237Z,9.50
2023-01-08T10:53:31.206Z,8.70
2023-01-08T10:54:31.173Z,8.80
2023-01-08T10:55:31.187Z,12.30
2023-01-08T10:56:31.154Z,9.60
2023-01-08T10:57:31.212Z,9.90
2023-01-08T10:58:31.156Z,14.00
2023-01-08T10:59:31.150Z,12.40
2023-01-08T11:00:31.177Z,8.00
2023-01-08T11:01:31.167Z,9.60
2023-01-08T11:02:31.119Z,12.70
2023-01-08T11:03:31.125Z,11.10
2023-01-08T11:04:31.069Z,12.80
2023-01-08T11:05:31.109Z,10.30
2023-01-08T11:06:31.051Z,9.30
2023-01-08T11:07:31.067Z,9.00
2023-01-08T11:08:31.033Z,13.30
2023-01-08T11:09:31.075Z,7.60
2023-01-08T11:10:31.028Z,9.50
2023-01-08T11:11:31.031Z,9.70
2023-01-08T11:12:30.989Z,8.20
2023-01-08T11:13:30.998Z,8.50
2023-01-08T11:14:30.964Z,9.40
2023-01-08T11:15:31.003Z,10.40
2023-01-08T11:16:31.019Z,9.60
2023-01-08T11:17:31.021Z,8.10
2023-01-08T11:18:30.923Z,8.40
2023-01-08T11:19:30.938Z,8.40
2023-01-08T11:20:30.909Z,6.60
2023-01-08T11:21:30.943Z,9.00
2023-01-08T11:22:30.880Z,8.70
2023-01-08T11:23:30.898Z,10.80
2023-01-08T11:24:30.863Z,8.40
2023-01-08T11:25:30.877Z,8.70
2023-01-08T11:26:30.846Z,10.40
2023-01-08T11:27:30.876Z,8.90
2023-01-08T11:28:30.823Z,8.70
2023-01-08T11:29:30.847Z,7.50
2023-01-08T11:30:30.795Z,5.10
2023-01-08T11:31:30.848Z,7.00
2023-01-08T11:32:30.778Z,6.20
2023-01-08T11:33:30.809Z,5.50
2023-01-08T11:34:30.756Z,6.60
2023-01-08T11:35:30.769Z,4.90
2023-01-08T11:36:30.735Z,6.00
2023-01-08T11:37:30.745Z,5.00
2023-01-08T11:38:30.730Z,5.40
2023-01-08T11:39:30.740Z,4.80
2023-01-08T11:40:30.692Z,7.70
2023-01-08T11:41:30.708Z,6.20
2023-01-08T11:42:30.671Z,6.10
2023-01-08T11:43:30.704Z,5.20
2023-01-08T11:44:30.651Z,5.90
2023-01-08T11:45:30.796Z,5.10
2023-01-08T11:46:30.639Z,7.10
2023-01-08T11:47:30.645Z,5.10
2023-01-08T11:48:30.627Z,6.00
2023-01-08T11:49:30.615Z,5.50
2023-01-08T11:50:30.611Z,4.00
2023-01-08T11:51:30.614Z,6.50
2023-01-08T11:52:30.611Z,7.20
2023-01-08T11:53:30.576Z,5.10
2023-01-08T11:54:30.545Z,4.60
2023-01-08T11:55:30.558Z,7.10
2023-01-08T11:56:30.537Z,6.80
2023-01-08T11:57:30.555Z,4.70
2023-01-08T11:58:30.507Z,4.40
2023-01-08T11:59:30.525Z,5.20
2023-01-08T12:00:30.485Z,5.90
2023-01-08T12:01:30.541Z,5.40
2023-01-08T12:02:30.508Z,6.60
2023-01-08T12:03:30.568Z,6.30
2023-01-08T12:04:30.440Z,5.10
2023-01-08T12:05:30.465Z,9.20
2023-01-08T12:06:30.417Z,6.20
2023-01-08T12:07:30.431Z,7.00
2023-01-08T12:08:30.403Z,4.40
2023-01-08T12:09:30.423Z,4.30
2023-01-08T12:10:30.374Z,6.00
2023-01-08T12:11:30.413Z,4.90
2023-01-08T12:12:30.356Z,5.40
2023-01-08T12:13:30.365Z,5.60
2023-01-08T12:14:30.336Z,5.10
2023-01-08T12:15:30.371Z,5.10
2023-01-08T12:16:30.367Z,5.00
2023-01-08T12:17:30.332Z,3.70
2023-01-08T12:18:30.295Z,5.50
2023-01-08T12:19:30.304Z,5.40
2023-01-08T12:20:30.282Z,4.90
2023-01-08T12:21:30.319Z,4.20
2023-01-08T12:22:30.257Z,4.80
2023-01-08T12:23:30.268Z,4.00
2023-01-08T12:24:30.234Z,5.70
2023-01-08T12:25:30.244Z,4.70
2023-01-08T12:26:30.236Z,6.00
2023-01-08T12:27:55.251Z,3.50
2023-01-08T12:28:30.193Z,6.70
2023-01-08T12:29:30.196Z,4.00
2023-01-08T12:30:30.165Z,3.00
2023-01-08T12:31:30.216Z,4.30
2023-01-08T12:32:30.155Z,3.00
2023-01-08T12:33:30.163Z,3.40
2023-01-08T12:34:30.121Z,4.20
2023-01-08T12:35:30.139Z,3.00
2023-01-08T12:36:30.106Z,4.10
2023-01-08T12:37:30.132Z,4.30
2023-01-08T12:38:30.083Z,4.20
2023-01-08T12:39:30.094Z,3.70
2023-01-08T12:40:30.070Z,3.10
2023-01-08T12:41:30.075Z,2.90
2023-01-08T12:42:30.131Z,5.40
2023-01-08T12:43:30.237Z,4.60
2023-01-08T12:44:30.031Z,3.60
2023-01-08T12:45:30.120Z,4.80
2023-01-08T12:46:30.000Z,2.90
2023-01-08T12:47:30.006Z,3.60
2023-01-08T12:48:30.270Z,3.50
2023-01-08T12:49:30.002Z,4.80
2023-01-08T12:50:29.957Z,5.30
2023-01-08T12:51:29.971Z,2.90
2023-01-08T12:52:29.934Z,3.40
2023-01-08T12:53:29.955Z,3.20
2023-01-08T12:54:29.919Z,5.00
2023-01-08T12:55:29.922Z,4.10
2023-01-08T12:56:29.908Z,4.30
2023-01-08T12:57:31.617Z,3.40
2023-01-08T12:58:29.869Z,4.30
2023-01-08T12:59:29.919Z,3.40
2023-01-08T13:00:29.870Z,4.80
2023-01-08T13:01:30.027Z,3.30
2023-01-08T13:02:30.015Z,3.10
2023-01-08T13:03:29.819Z,2.50
2023-01-08T13:04:29.829Z,2.70
2023-01-08T13:05:29.807Z,3.50
2023-01-08T13:06:29.811Z,2.90
2023-01-08T13:07:29.781Z,3.90
2023-01-08T13:08:29.786Z,3.30
2023-01-08T13:09:29.757Z,4.30
2023-01-08T13:10:29.784Z,2.90
2023-01-08T13:11:29.757Z,3.10
2023-01-08T13:12:29.748Z,3.10
2023-01-08T13:13:29.762Z,3.60
2023-01-08T13:14:29.720Z,3.10
2023-01-08T13:15:29.691Z,2.80
2023-01-08T13:16:29.736Z,2.70
2023-01-08T13:17:29.669Z,4.20